Time;durP1;ratioP1;P1;durP2;ratioP2;P2;SDS_P1;SDS_P2;PMS_P1;PMS_P2;Temp;Humidity;BMP_temperature;BMP_pressure;BME280_temperature;BME280_humidity;BME280_pressure;Samples;Min_cycle;Max_cycle;Signal;HPM_P1;HPM_P2
2022/08/30 00:03:17;;;;;;;1.13;0.68;;;16.60;99.90;;;;;;5088310;28;20039;-74
2022/08/30 00:05:43;;;;;;;1.85;0.75;;;16.60;99.90;;;;;;5092792;28;20043;-74
2022/08/30 00:08:09;;;;;;;0.88;0.55;;;16.60;99.90;;;;;;5064588;28;20070;-74
2022/08/30 00:10:36;;;;;;;0.90;0.55;;;16.60;99.90;;;;;;5075754;28;20500;-74
2022/08/30 00:13:02;;;;;;;1.55;0.82;;;16.50;99.90;;;;;;5078683;28;20035;-74
2022/08/30 00:15:28;;;;;;;1.30;0.80;;;16.50;99.90;;;;;;5094969;28;20036;-74
2022/08/30 00:17:54;;;;;;;1.40;0.68;;;16.50;99.90;;;;;;5086016;28;20044;-74
2022/08/30 00:20:23;;;;;;;1.98;0.73;;;16.50;99.90;;;;;;5081082;28;20023;-74
2022/08/30 00:22:49;;;;;;;1.13;0.57;;;16.50;99.90;;;;;;5082283;28;20040;-74
2022/08/30 00:25:16;;;;;;;2.17;0.73;;;16.50;99.90;;;;;;5087748;28;21029;-74
2022/08/30 00:27:42;;;;;;;1.63;0.82;;;16.50;99.90;;;;;;5095281;28;20040;-74
2022/08/30 00:30:10;;;;;;;1.90;0.90;;;16.50;99.90;;;;;;5086671;28;20045;-74
2022/08/30 00:32:35;;;;;;;1.63;0.90;;;16.50;99.90;;;;;;5070736;28;20703;-74
2022/08/30 00:35:02;;;;;;;1.23;0.80;;;16.50;99.90;;;;;;5098724;28;20058;-74
2022/08/30 00:37:28;;;;;;;1.60;0.70;;;16.40;99.90;;;;;;5082651;28;20040;-74
2022/08/30 00:39:53;;;;;;;1.85;0.90;;;16.40;99.90;;;;;;5098320;28;20039;-74
2022/08/30 00:42:20;;;;;;;1.38;0.80;;;16.40;99.90;;;;;;5082745;28;20481;-74
2022/08/30 00:44:49;;;;;;;1.85;0.77;;;16.50;99.90;;;;;;5090112;28;20028;-74
2022/08/30 00:47:15;;;;;;;1.17;0.57;;;16.40;99.90;;;;;;5072568;28;20047;-74
2022/08/30 00:49:44;;;;;;;3.00;1.33;;;16.40;99.90;;;;;;5079669;28;20028;-74
2022/08/30 00:52:11;;;;;;;1.95;0.85;;;16.40;99.90;;;;;;5071713;28;20561;-74
2022/08/30 00:54:40;;;;;;;3.88;0.90;;;16.30;99.90;;;;;;5086082;28;20048;-74
2022/08/30 00:57:06;;;;;;;1.67;0.90;;;16.40;99.90;;;;;;5095458;28;20066;-74
2022/08/30 00:59:33;;;;;;;1.85;1.02;;;16.40;99.90;;;;;;5083490;28;20557;-74
2022/08/30 01:02:00;;;;;;;1.20;0.70;;;16.40;99.90;;;;;;5077766;28;20486;-74
2022/08/30 01:04:27;;;;;;;1.90;0.95;;;16.40;99.90;;;;;;5086281;28;20056;-74
2022/08/30 01:06:53;;;;;;;1.20;0.77;;;16.30;99.90;;;;;;5083315;28;20036;-74
2022/08/30 01:09:19;;;;;;;1.55;0.77;;;16.30;99.90;;;;;;5084675;28;20047;-74
2022/08/30 01:11:46;;;;;;;1.30;0.80;;;16.30;99.90;;;;;;5082431;28;20040;-74
2022/08/30 01:14:12;;;;;;;2.50;0.85;;;16.30;99.90;;;;;;5080800;28;20047;-74
2022/08/30 01:16:42;;;;;;;1.75;0.80;;;16.30;99.90;;;;;;5084363;28;20115;-73
2022/08/30 01:19:46;;;;;;;2.55;0.80;;;16.30;99.90;;;;;;5082248;28;20781;-74
2022/08/30 01:22:38;;;;;;;3.47;1.15;;;16.20;99.90;;;;;;5096212;28;20117;-74
2022/08/30 01:25:06;;;;;;;1.83;0.88;;;16.30;99.90;;;;;;5082218;28;20036;-74
2022/08/30 01:27:33;;;;;;;2.35;1.00;;;16.30;99.90;;;;;;5091094;28;20538;-74
2022/08/30 01:30:00;;;;;;;1.63;0.88;;;16.30;99.90;;;;;;5067699;28;20089;-74
2022/08/30 01:32:28;;;;;;;3.33;0.90;;;16.30;99.90;;;;;;5083256;28;20661;-74
2022/08/30 01:34:54;;;;;;;1.88;1.02;;;16.30;99.90;;;;;;5081776;28;20603;-74
2022/08/30 01:37:31;;;;;;;1.70;0.73;;;16.30;99.90;;;;;;5084251;28;20510;-74
2022/08/30 01:39:58;;;;;;;1.33;0.75;;;16.30;99.90;;;;;;5083141;28;20072;-74
2022/08/30 01:42:24;;;;;;;2.35;1.02;;;16.30;99.90;;;;;;5082877;28;20039;-74
2022/08/30 01:44:50;;;;;;;1.10;0.70;;;16.30;99.90;;;;;;5081682;28;20036;-74
2022/08/30 01:47:17;;;;;;;2.40;1.13;;;16.30;99.90;;;;;;5084425;28;20102;-74
2022/08/30 01:49:46;;;;;;;1.80;0.93;;;16.30;99.90;;;;;;5079743;28;20054;-74
2022/08/30 01:52:13;;;;;;;1.58;0.82;;;16.30;99.90;;;;;;5083819;28;20729;-74
2022/08/30 01:54:41;;;;;;;1.73;1.00;;;16.30;99.90;;;;;;5089161;28;20040;-74
2022/08/30 01:57:10;;;;;;;1.45;0.82;;;16.20;99.90;;;;;;5088317;28;20097;-74
2022/08/30 01:59:37;;;;;;;1.90;0.98;;;16.20;99.90;;;;;;5088180;28;20083;-74
2022/08/30 02:02:04;;;;;;;1.52;0.80;;;16.20;99.90;;;;;;5090851;28;20039;-74
2022/08/30 02:04:30;;;;;;;1.77;0.80;;;16.20;99.90;;;;;;5081726;28;20046;-74
2022/08/30 02:06:55;;;;;;;2.72;1.23;;;16.20;99.90;;;;;;5071893;28;20039;-73
2022/08/30 02:09:21;;;;;;;1.02;0.60;;;16.20;99.90;;;;;;5080484;28;20044;-74
2022/08/30 02:11:47;;;;;;;1.45;0.80;;;16.20;99.90;;;;;;5090049;28;20035;-74
2022/08/30 02:14:13;;;;;;;1.45;0.75;;;16.10;99.90;;;;;;5069430;28;20036;-73
2022/08/30 02:16:40;;;;;;;1.95;0.90;;;16.10;99.90;;;;;;5087935;28;20131;-74
2022/08/30 02:19:06;;;;;;;2.20;1.10;;;16.10;99.90;;;;;;5087891;28;20509;-74
2022/08/30 02:21:32;;;;;;;1.60;0.82;;;16.20;99.90;;;;;;5082003;28;20042;-74
2022/08/30 02:23:58;;;;;;;1.55;0.93;;;16.10;99.90;;;;;;5089406;28;20116;-74
2022/08/30 02:26:24;;;;;;;4.72;1.00;;;16.10;99.90;;;;;;5089603;28;20455;-74
2022/08/30 02:28:51;;;;;;;1.45;0.88;;;16.10;99.90;;;;;;5086363;28;20143;-74
2022/08/30 02:31:18;;;;;;;2.13;1.02;;;16.00;99.90;;;;;;5063413;28;20060;-74
2022/08/30 02:33:43;;;;;;;1.90;1.08;;;16.00;99.90;;;;;;5092471;28;20115;-74
2022/08/30 02:36:09;;;;;;;4.63;1.00;;;16.00;99.90;;;;;;5084063;28;20143;-74
2022/08/30 02:38:35;;;;;;;1.73;1.13;;;16.00;99.90;;;;;;5083442;28;20058;-74
2022/08/30 02:41:02;;;;;;;2.30;0.90;;;16.00;99.90;;;;;;5070517;28;20494;-74
2022/08/30 02:43:27;;;;;;;2.03;0.82;;;16.00;99.90;;;;;;5096500;28;20066;-74
2022/08/30 02:45:53;;;;;;;1.33;0.77;;;16.00;99.90;;;;;;5081194;28;20440;-74
2022/08/30 02:48:19;;;;;;;2.25;1.13;;;16.00;99.90;;;;;;5099708;28;20570;-74
2022/08/30 02:50:48;;;;;;;1.55;0.80;;;15.90;99.90;;;;;;5096448;28;20063;-74
2022/08/30 02:53:14;;;;;;;2.05;1.00;;;16.00;99.90;;;;;;5074771;28;20497;-74
2022/08/30 02:55:40;;;;;;;2.22;1.05;;;15.90;99.90;;;;;;5088216;28;20035;-74
2022/08/30 02:58:07;;;;;;;1.75;0.80;;;15.90;99.90;;;;;;5086216;28;21391;-74
2022/08/30 03:00:33;;;;;;;2.65;1.23;;;15.90;99.90;;;;;;5081356;28;20051;-74
2022/08/30 03:02:59;;;;;;;2.35;0.93;;;15.80;99.90;;;;;;5093653;28;20129;-73
2022/08/30 03:05:25;;;;;;;1.55;0.88;;;15.80;99.90;;;;;;5086617;28;20055;-74
2022/08/30 03:07:50;;;;;;;1.77;0.85;;;15.80;99.90;;;;;;5087821;28;20037;-74
2022/08/30 03:10:16;;;;;;;1.75;0.77;;;15.80;99.90;;;;;;5080864;28;20520;-74
2022/08/30 03:12:42;;;;;;;2.08;0.90;;;15.70;99.90;;;;;;5080500;28;20504;-73
2022/08/30 03:15:11;;;;;;;2.13;1.05;;;15.60;99.90;;;;;;5083673;28;20035;-73
2022/08/30 03:17:38;;;;;;;2.45;1.00;;;15.60;99.90;;;;;;5080408;28;20040;-73
2022/08/30 03:20:05;;;;;;;1.73;1.10;;;15.50;99.90;;;;;;5083798;28;20044;-74
2022/08/30 03:22:31;;;;;;;1.27;0.70;;;15.50;99.90;;;;;;5080559;28;20066;-74
2022/08/30 03:24:58;;;;;;;0.95;0.65;;;15.40;99.90;;;;;;5096871;28;20039;-73
2022/08/30 03:27:24;;;;;;;2.15;0.93;;;15.40;99.90;;;;;;5080608;28;20040;-73
2022/08/30 03:29:50;;;;;;;2.47;0.80;;;15.30;99.90;;;;;;5083066;28;20101;-74
2022/08/30 03:32:16;;;;;;;1.77;0.95;;;15.30;99.90;;;;;;5077206;28;20490;-74
2022/08/30 03:34:41;;;;;;;1.65;0.60;;;15.30;99.90;;;;;;5080680;28;20482;-73
2022/08/30 03:37:07;;;;;;;1.80;0.90;;;15.30;99.90;;;;;;5086820;28;20490;-73
2022/08/30 03:39:32;;;;;;;2.28;1.02;;;15.20;99.90;;;;;;5085334;28;20052;-74
2022/08/30 03:41:58;;;;;;;2.92;0.90;;;15.20;99.90;;;;;;5064694;28;20081;-74
2022/08/30 03:44:24;;;;;;;3.17;0.85;;;15.20;99.90;;;;;;5078349;28;20047;-74
2022/08/30 03:46:50;;;;;;;1.85;1.17;;;15.10;99.90;;;;;;5081290;28;20063;-74
2022/08/30 03:49:17;;;;;;;3.67;1.10;;;15.10;99.90;;;;;;5097129;28;20044;-73
2022/08/30 03:51:43;;;;;;;1.38;0.73;;;15.10;99.90;;;;;;5061239;28;20063;-73
2022/08/30 03:54:08;;;;;;;1.90;0.82;;;15.00;99.90;;;;;;5082269;28;20543;-73
2022/08/30 03:56:34;;;;;;;1.80;0.98;;;15.00;99.90;;;;;;5081335;28;20027;-73
2022/08/30 03:59:00;;;;;;;2.28;0.85;;;14.90;99.90;;;;;;5091852;28;20496;-73
2022/08/30 04:01:26;;;;;;;2.22;0.80;;;14.90;99.90;;;;;;5084083;28;20051;-73
2022/08/30 04:03:51;;;;;;;2.95;1.08;;;14.90;99.90;;;;;;5096285;28;20024;-74
2022/08/30 04:06:17;;;;;;;3.78;1.27;;;14.90;99.90;;;;;;5098098;28;20040;-74
2022/08/30 04:08:44;;;;;;;2.50;1.10;;;14.80;99.90;;;;;;5091183;28;20046;-74
2022/08/30 04:11:11;;;;;;;1.92;1.20;;;14.70;99.90;;;;;;5085507;28;20457;-74
2022/08/30 04:13:37;;;;;;;1.83;0.90;;;14.80;99.90;;;;;;5083542;28;20097;-74
2022/08/30 04:16:03;;;;;;;1.52;0.90;;;14.70;99.90;;;;;;5083622;28;20040;-74
2022/08/30 04:18:28;;;;;;;2.50;1.67;;;14.70;99.90;;;;;;5088353;28;20592;-74
2022/08/30 04:20:54;;;;;;;2.03;1.25;;;14.70;99.90;;;;;;5095848;28;20520;-74
2022/08/30 04:23:20;;;;;;;1.90;1.20;;;14.70;99.90;;;;;;5081681;28;20079;-73
2022/08/30 04:25:46;;;;;;;1.60;0.82;;;14.70;99.90;;;;;;5086107;28;20056;-74
2022/08/30 04:28:12;;;;;;;2.33;1.20;;;14.70;99.90;;;;;;5099625;28;20141;-74
2022/08/30 04:30:41;;;;;;;2.13;1.30;;;14.60;99.90;;;;;;5075085;28;20066;-74
2022/08/30 04:33:07;;;;;;;3.05;1.58;;;14.60;99.90;;;;;;5075202;28;20040;-74
2022/08/30 04:35:32;;;;;;;3.88;1.58;;;14.60;99.90;;;;;;5081240;28;20032;-74
2022/08/30 04:37:58;;;;;;;4.80;1.95;;;14.60;99.90;;;;;;5068335;28;20028;-74
2022/08/30 04:40:24;;;;;;;3.03;1.58;;;14.60;99.90;;;;;;5090933;28;20500;-74
2022/08/30 04:42:52;;;;;;;2.35;1.30;;;14.60;99.90;;;;;;5075616;28;20486;-74
2022/08/30 04:45:19;;;;;;;2.33;1.23;;;14.60;99.90;;;;;;5100936;28;20078;-74
2022/08/30 04:47:45;;;;;;;2.38;1.30;;;14.60;99.90;;;;;;5079387;28;20055;-74
2022/08/30 04:50:15;;;;;;;1.65;0.88;;;14.60;99.90;;;;;;5085993;28;20121;-73
2022/08/30 04:52:41;;;;;;;1.70;1.02;;;14.50;99.90;;;;;;5080171;28;20803;-74
2022/08/30 04:55:09;;;;;;;1.77;1.00;;;14.40;99.90;;;;;;5071033;28;20028;-73
2022/08/30 04:57:35;;;;;;;2.47;1.25;;;14.40;99.90;;;;;;5088872;28;20039;-73
2022/08/30 05:00:02;;;;;;;3.50;1.48;;;14.30;99.90;;;;;;5092774;28;20516;-73
2022/08/30 05:02:28;;;;;;;2.92;1.30;;;14.30;99.90;;;;;;5085879;28;20903;-73
2022/08/30 05:07:38;;;;;;;2.25;1.33;;;14.30;99.90;;;;;;5083005;28;20035;-73
2022/08/30 05:10:03;;;;;;;3.03;1.52;;;14.30;99.90;;;;;;5083781;28;20043;-73
2022/08/30 05:12:29;;;;;;;2.85;1.42;;;14.20;99.90;;;;;;5069593;28;20063;-73
2022/08/30 05:14:57;;;;;;;5.28;1.45;;;14.20;99.90;;;;;;5090942;28;20368;-74
2022/08/30 05:17:23;;;;;;;2.40;1.52;;;14.20;99.90;;;;;;5086518;28;20140;-73
2022/08/30 05:19:49;;;;;;;2.50;1.45;;;14.20;99.90;;;;;;5086466;28;20063;-73
2022/08/30 05:22:15;;;;;;;2.80;1.35;;;14.20;99.90;;;;;;5082525;28;20081;-74
2022/08/30 05:24:41;;;;;;;3.28;1.50;;;14.10;99.90;;;;;;5090004;28;20553;-73
2022/08/30 05:27:06;;;;;;;1.58;1.00;;;14.10;99.90;;;;;;5080608;28;20040;-74
2022/08/30 05:29:32;;;;;;;3.38;1.38;;;14.10;99.90;;;;;;5080581;28;20104;-73
2022/08/30 05:31:58;;;;;;;2.50;1.48;;;14.10;99.90;;;;;;5068786;28;20588;-73
2022/08/30 05:34:24;;;;;;;2.13;1.15;;;14.10;99.90;;;;;;5084528;28;20447;-74
2022/08/30 05:36:50;;;;;;;2.90;1.58;;;14.10;99.90;;;;;;5100397;28;20094;-73
2022/08/30 05:39:15;;;;;;;2.70;1.73;;;14.10;99.90;;;;;;5074656;28;20758;-74
2022/08/30 05:41:41;;;;;;;10.05;2.08;;;14.10;99.90;;;;;;5098401;28;20063;-73
2022/08/30 05:44:08;;;;;;;3.20;1.48;;;14.20;99.90;;;;;;5092905;28;20042;-74
2022/08/30 05:46:34;;;;;;;3.65;1.60;;;14.20;99.90;;;;;;5088336;28;20040;-75
2022/08/30 05:49:03;;;;;;;3.25;1.40;;;14.20;99.90;;;;;;5080371;28;20094;-75
2022/08/30 05:51:30;;;;;;;3.15;1.40;;;14.20;99.90;;;;;;5079380;28;20036;-75
2022/08/30 05:53:57;;;;;;;3.95;1.77;;;14.30;99.90;;;;;;5065062;28;20039;-74
2022/08/30 05:56:26;;;;;;;2.45;1.60;;;14.30;99.90;;;;;;5081970;28;20036;-75
2022/08/30 05:58:53;;;;;;;3.45;1.70;;;14.40;99.90;;;;;;5077160;28;20035;-74
2022/08/30 06:01:31;;;;;;;2.03;1.38;;;14.40;99.90;;;;;;5095561;28;20042;-74
2022/08/30 06:03:59;;;;;;;2.95;1.90;;;14.40;99.90;;;;;;5092445;28;20151;-75
2022/08/30 06:06:26;;;;;;;2.08;1.15;;;14.50;99.90;;;;;;5085441;28;20116;-75
2022/08/30 06:08:52;;;;;;;2.22;1.35;;;14.50;99.90;;;;;;5067180;28;20076;-74
2022/08/30 06:11:20;;;;;;;2.28;1.30;;;14.60;99.90;;;;;;5087336;28;20081;-75
2022/08/30 06:13:46;;;;;;;3.83;1.35;;;14.60;99.90;;;;;;5081734;28;20063;-74
2022/08/30 06:16:14;;;;;;;1.85;1.23;;;14.60;99.90;;;;;;5096268;28;20457;-74
2022/08/30 06:18:40;;;;;;;2.20;1.20;;;14.70;99.90;;;;;;5082279;28;20040;-74
2022/08/30 06:21:07;;;;;;;3.15;1.40;;;14.80;99.90;;;;;;5087939;28;20084;-74
2022/08/30 06:23:33;;;;;;;1.75;1.13;;;14.80;99.90;;;;;;5085603;28;20129;-72
2022/08/30 06:26:06;;;;;;;5.90;1.35;;;14.70;99.90;;;;;;5081231;28;20216;-74
2022/08/30 06:28:32;;;;;;;1.15;0.75;;;14.90;99.90;;;;;;5096314;28;20115;-74
2022/08/30 06:30:58;;;;;;;3.83;0.90;;;14.80;99.90;;;;;;5081875;28;20368;-74
2022/08/30 06:33:23;;;;;;;2.00;1.00;;;14.90;99.90;;;;;;5078647;28;20380;-74
2022/08/30 06:35:49;;;;;;;0.90;0.60;;;14.90;99.90;;;;;;5082568;28;20074;-74
2022/08/30 06:38:15;;;;;;;1.20;0.70;;;15.00;99.90;;;;;;5077920;28;20477;-74
2022/08/30 06:40:41;;;;;;;1.55;0.85;;;15.00;99.90;;;;;;5078911;28;20043;-73
2022/08/30 06:43:06;;;;;;;3.70;1.52;;;15.10;99.90;;;;;;5084361;28;20043;-74
2022/08/30 06:45:33;;;;;;;2.55;0.82;;;15.10;99.90;;;;;;5098012;28;20040;-74
2022/08/30 06:47:59;;;;;;;5.35;0.85;;;15.10;99.90;;;;;;5082030;28;20036;-74
2022/08/30 06:50:25;;;;;;;1.25;0.60;;;15.30;99.90;;;;;;5078389;28;20033;-73
2022/08/30 06:52:51;;;;;;;1.55;0.90;;;15.20;99.90;;;;;;5079140;28;20093;-74
2022/08/30 06:55:17;;;;;;;2.85;0.90;;;15.30;99.90;;;;;;5081209;28;20319;-74
2022/08/30 06:57:43;;;;;;;1.75;0.80;;;15.40;99.90;;;;;;5079939;28;20040;-73
2022/08/30 07:00:12;;;;;;;1.58;0.77;;;15.50;99.90;;;;;;5080643;28;20049;-74
2022/08/30 07:02:38;;;;;;;1.63;0.70;;;15.50;99.90;;;;;;5078720;28;20044;-74
2022/08/30 07:05:06;;;;;;;1.35;0.80;;;15.60;99.90;;;;;;5080227;28;20693;-74
2022/08/30 07:07:33;;;;;;;1.08;0.60;;;15.60;99.90;;;;;;5078971;28;20040;-74
2022/08/30 07:10:02;;;;;;;1.00;0.65;;;15.70;99.90;;;;;;5097290;28;20044;-74
2022/08/30 07:12:27;;;;;;;0.55;0.40;;;15.70;99.90;;;;;;5079300;28;20207;-73
2022/08/30 07:14:53;;;;;;;1.80;0.75;;;15.80;99.90;;;;;;5077802;28;20060;-75
2022/08/30 07:20:04;;;;;;;2.08;0.75;;;15.90;99.90;;;;;;5074129;28;20048;-74
2022/08/30 07:22:31;;;;;;;0.93;0.55;;;16.00;99.90;;;;;;5081648;28;20064;-74
2022/08/30 07:24:56;;;;;;;1.60;0.60;;;16.10;99.90;;;;;;5075341;28;20048;-74
2022/08/30 07:27:22;;;;;;;1.58;0.52;;;16.10;99.90;;;;;;5079244;28;20070;-74
2022/08/30 07:29:48;;;;;;;0.93;0.43;;;16.20;99.90;;;;;;5081136;28;20032;-74
2022/08/30 07:32:14;;;;;;;0.80;0.55;;;16.20;99.90;;;;;;5078470;28;20405;-74
2022/08/30 07:34:40;;;;;;;1.25;0.52;;;16.30;99.90;;;;;;5096286;28;20044;-74
2022/08/30 07:37:06;;;;;;;0.98;0.38;;;16.40;99.90;;;;;;5080181;28;20127;-74
2022/08/30 07:39:31;;;;;;;2.05;0.80;;;16.40;99.90;;;;;;5080412;28;20490;-74
2022/08/30 07:41:57;;;;;;;1.63;0.57;;;16.50;99.90;;;;;;5066173;28;20515;-74
2022/08/30 07:44:22;;;;;;;1.30;0.52;;;16.50;99.90;;;;;;5101804;28;20036;-74
2022/08/30 07:46:48;;;;;;;0.38;0.30;;;16.60;99.90;;;;;;5084852;28;20547;-74
2022/08/30 07:49:14;;;;;;;1.02;0.38;;;16.60;99.90;;;;;;5084863;28;20036;-74
2022/08/30 07:51:40;;;;;;;1.30;0.63;;;16.70;99.90;;;;;;5101455;27;20040;-74
2022/08/30 07:54:06;;;;;;;0.68;0.32;;;16.70;99.90;;;;;;5081990;28;20279;-74
2022/08/30 07:56:32;;;;;;;0.55;0.30;;;16.70;99.90;;;;;;5083750;28;20390;-74
2022/08/30 07:58:57;;;;;;;1.40;0.60;;;16.80;99.90;;;;;;5083654;28;20149;-74
2022/08/30 08:01:23;;;;;;;1.05;0.57;;;16.80;99.60;;;;;;5084370;28;20039;-74
2022/08/30 08:03:49;;;;;;;0.95;0.30;;;16.80;99.60;;;;;;5083415;28;20071;-74
2022/08/30 08:06:16;;;;;;;1.23;0.60;;;16.90;99.20;;;;;;5075895;28;20097;-74
2022/08/30 08:08:44;;;;;;;1.15;0.50;;;16.90;98.70;;;;;;5085158;28;20036;-74
2022/08/30 08:11:15;;;;;;;1.20;0.43;;;17.00;98.50;;;;;;5086100;28;20074;-74
2022/08/30 08:13:42;;;;;;;1.30;0.45;;;17.00;98.30;;;;;;5102052;28;20516;-74
2022/08/30 08:16:08;;;;;;;1.40;0.68;;;17.00;98.20;;;;;;5082155;28;20032;-74
2022/08/30 08:18:34;;;;;;;0.65;0.47;;;17.10;97.80;;;;;;5085275;28;20447;-74
2022/08/30 08:21:00;;;;;;;3.42;0.38;;;17.10;97.50;;;;;;5098583;28;20036;-74
2022/08/30 08:23:26;;;;;;;1.27;0.40;;;17.10;97.70;;;;;;5083000;28;20098;-75
2022/08/30 08:25:52;;;;;;;0.63;0.32;;;17.20;97.70;;;;;;5083308;28;20490;-75
2022/08/30 08:28:18;;;;;;;1.27;0.55;;;17.20;97.30;;;;;;5060402;28;20649;-74
2022/08/30 08:30:44;;;;;;;0.68;0.43;;;17.30;96.80;;;;;;5094353;27;20036;-74
2022/08/30 08:33:12;;;;;;;1.05;0.40;;;17.30;96.70;;;;;;5087825;28;20032;-74
2022/08/30 08:35:37;;;;;;;1.98;0.43;;;17.40;96.50;;;;;;5091803;27;20796;-74
2022/08/30 08:38:03;;;;;;;1.38;0.45;;;17.40;96.50;;;;;;5077638;28;20020;-75
2022/08/30 08:40:39;;;;;;;3.33;0.43;;;17.40;96.00;;;;;;5076385;28;20495;-74
2022/08/30 08:43:11;;;;;;;1.08;0.60;;;17.50;96.20;;;;;;5092611;27;20051;-70
2022/08/30 08:45:54;;;;;;;0.90;0.35;;;17.50;95.30;;;;;;5078153;28;20048;-73
2022/08/30 08:48:38;;;;;;;0.77;0.40;;;17.50;93.60;;;;;;5097085;27;20052;-74
2022/08/30 08:54:21;;;;;;;4.28;0.55;;;17.50;94.90;;;;;;5079208;28;20070;-74
2022/08/30 08:56:47;;;;;;;0.90;0.28;;;17.60;92.70;;;;;;5063601;28;20058;-74
2022/08/30 08:59:14;;;;;;;1.70;0.50;;;17.70;94.00;;;;;;5065024;28;20687;-80
2022/08/30 09:01:40;;;;;;;0.55;0.22;;;17.80;93.60;;;;;;5060842;28;20530;-74
2022/08/30 09:04:20;;;;;;;0.60;0.25;;;17.70;93.80;;;;;;5080820;28;20040;-75
2022/08/30 09:07:02;;;;;;;1.90;0.52;;;17.80;93.80;;;;;;5101263;28;20032;-74
2022/08/30 09:09:34;;;;;;;0.70;0.38;;;17.70;93.10;;;;;;5073278;28;20032;-74
2022/08/30 09:12:00;;;;;;;1.10;0.40;;;17.80;93.60;;;;;;5072743;28;20293;-74
2022/08/30 09:14:30;;;;;;;2.10;0.43;;;17.80;93.60;;;;;;5082102;28;20292;-74
2022/08/30 09:17:00;;;;;;;0.70;0.20;;;17.80;93.40;;;;;;5078056;28;20113;-74
2022/08/30 09:19:26;;;;;;;0.73;0.43;;;17.80;92.30;;;;;;5065320;28;20513;-74
2022/08/30 09:22:01;;;;;;;1.88;0.25;;;17.80;92.70;;;;;;5080685;28;20062;-74
2022/08/30 09:24:36;;;;;;;0.50;0.20;;;17.90;91.80;;;;;;5097943;28;20123;-74
2022/08/30 09:27:14;;;;;;;0.52;0.28;;;17.90;91.40;;;;;;5082544;28;20121;-74
2022/08/30 09:29:55;;;;;;;0.52;0.30;;;17.90;91.00;;;;;;5099506;28;20053;-74
2022/08/30 09:32:29;;;;;;;0.70;0.40;;;18.00;90.50;;;;;;5083098;28;20108;-74
2022/08/30 09:34:56;;;;;;;0.32;0.13;;;18.10;90.50;;;;;;5082268;28;20036;-74
2022/08/30 09:37:26;;;;;;;0.98;0.30;;;18.20;90.80;;;;;;5079650;28;20064;-74
2022/08/30 09:39:52;;;;;;;0.57;0.20;;;18.20;90.80;;;;;;5082004;28;20494;-74
2022/08/30 09:42:25;;;;;;;2.38;0.35;;;18.20;91.00;;;;;;5083188;28;20054;-74
2022/08/30 09:44:52;;;;;;;0.90;0.30;;;18.40;90.80;;;;;;5083207;28;20499;-74
2022/08/30 09:47:30;;;;;;;0.70;0.40;;;18.40;91.20;;;;;;5099625;28;20687;-74
2022/08/30 09:50:05;;;;;;;0.80;0.65;;;18.40;90.70;;;;;;5099607;28;20047;-74
2022/08/30 09:52:53;;;;;;;0.57;0.28;;;18.50;90.30;;;;;;5066627;28;20182;-74
2022/08/30 09:55:45;;;;;;;1.75;0.22;;;18.50;90.60;;;;;;5075434;28;20497;-74
2022/08/30 09:58:11;;;;;;;0.32;0.17;;;18.60;86.70;;;;;;5081451;28;20040;-74
2022/08/30 10:00:49;;;;;;;1.08;0.30;;;18.50;90.40;;;;;;5079361;28;20049;-74
2022/08/30 10:04:00;;;;;;;1.30;0.30;;;18.60;87.70;;;;;;5080581;28;20432;-74
2022/08/30 10:06:35;;;;;;;0.20;0.17;;;18.70;88.00;;;;;;5077430;28;20464;-74
2022/08/30 10:09:15;;;;;;;0.50;0.20;;;18.70;88.40;;;;;;5078948;28;20040;-74
2022/08/30 10:12:01;;;;;;;1.95;0.40;;;18.80;89.50;;;;;;5078889;28;20067;-74
2022/08/30 10:14:32;;;;;;;;;;;18.80;89.80;;;;;;5082174;28;20044;-74
2022/08/30 10:17:01;;;;;;;0.60;0.20;;;18.70;82.80;;;;;;5098841;28;19920;-74
2022/08/30 10:19:35;;;;;;;0.57;0.32;;;18.80;89.00;;;;;;5082584;28;20067;-74
2022/08/30 10:22:15;;;;;;;0.80;0.33;;;18.80;88.40;;;;;;5093026;28;20052;-74
2022/08/30 10:24:52;;;;;;;;;;;18.90;87.30;;;;;;5106199;27;20529;-73
2022/08/30 10:27:28;;;;;;;0.40;0.20;;;18.90;82.10;;;;;;5091483;28;19916;-73
2022/08/30 10:30:01;;;;;;;0.30;0.20;;;18.90;86.50;;;;;;5081534;28;20036;-73
2022/08/30 10:32:53;;;;;;;0.20;0.10;;;18.90;84.40;;;;;;5104878;28;20100;-73
2022/08/30 10:35:31;;;;;;;0.65;0.20;;;18.90;83.20;;;;;;5120191;27;20046;-74
2022/08/30 10:38:17;;;;;;;1.40;0.35;;;19.00;85.60;;;;;;5094949;28;20451;-74
2022/08/30 10:43:37;;;;;;;1.05;0.30;;;18.90;86.60;;;;;;5093017;28;20036;-74
2022/08/30 10:46:09;;;;;;;1.75;0.52;;;19.00;86.40;;;;;;5094541;28;20393;-74
2022/08/30 10:48:41;;;;;;;1.02;0.28;;;18.90;85.90;;;;;;5120855;27;20044;-74
2022/08/30 10:51:34;;;;;;;1.25;0.43;;;18.90;86.40;;;;;;5092401;28;20523;-74
2022/08/30 10:54:12;;;;;;;0.82;0.30;;;18.90;82.70;;;;;;5083355;28;20044;-75
2022/08/30 10:56:41;;;;;;;1.02;0.30;;;19.00;81.90;;;;;;5088944;28;20626;-75
2022/08/30 10:59:07;;;;;;;0.75;0.30;;;19.00;83.90;;;;;;5088330;28;20646;-74
2022/08/30 11:01:48;;;;;;;1.15;0.38;;;19.00;84.20;;;;;;5089653;28;20087;-73
2022/08/30 11:04:26;;;;;;;0.55;0.25;;;19.00;83.40;;;;;;5122652;27;20459;-74
2022/08/30 11:07:00;;;;;;;2.85;0.68;;;19.00;82.40;;;;;;5126004;27;20528;-74
2022/08/30 11:10:10;;;;;;;0.60;0.30;;;19.10;82.10;;;;;;5122372;27;20048;-74
2022/08/30 11:13:04;;;;;;;1.75;0.50;;;19.10;77.50;;;;;;5079121;27;20048;-74
2022/08/30 11:15:35;;;;;;;0.38;0.28;;;19.20;77.70;;;;;;5101545;28;20539;-74
2022/08/30 11:18:11;;;;;;;0.50;0.10;;;19.10;81.90;;;;;;5090149;28;20039;-75
2022/08/30 11:20:52;;;;;;;0.85;0.40;;;19.20;81.90;;;;;;5097792;28;20036;-75
2022/08/30 11:23:27;;;;;;;0.85;0.35;;;19.20;81.00;;;;;;5096403;28;20521;-74
2022/08/30 11:26:00;;;;;;;0.22;0.10;;;19.20;82.80;;;;;;5098604;28;20028;-74
2022/08/30 11:28:59;;;;;;;0.80;0.30;;;19.30;80.00;;;;;;5083165;28;20035;-74
2022/08/30 11:31:36;;;;;;;0.45;0.20;;;19.20;76.50;;;;;;5089649;28;20222;-74
2022/08/30 11:34:02;;;;;;;0.70;0.40;;;19.30;80.00;;;;;;5101990;28;20207;-74
2022/08/30 11:36:28;;;;;;;1.10;0.50;;;19.30;80.60;;;;;;5123827;27;20108;-74
2022/08/30 11:38:53;;;;;;;0.30;0.20;;;19.40;80.80;;;;;;5080308;28;20040;-74
2022/08/30 11:41:28;;;;;;;0.77;0.38;;;19.40;80.70;;;;;;5061913;28;20036;-74
2022/08/30 11:43:55;;;;;;;0.45;0.20;;;19.40;78.30;;;;;;5071842;28;20101;-74
2022/08/30 11:46:27;;;;;;;0.60;0.30;;;19.50;80.30;;;;;;5089799;28;20119;-74
2022/08/30 11:49:25;;;;;;;1.30;0.40;;;19.50;79.40;;;;;;5079274;28;20040;-74
2022/08/30 11:51:59;;;;;;;1.35;0.40;;;19.50;78.40;;;;;;5082569;28;20036;-74
2022/08/30 11:54:53;;;;;;;1.33;0.30;;;19.50;79.10;;;;;;5080555;28;20775;-74
2022/08/30 11:57:40;;;;;;;0.75;0.43;;;19.60;78.70;;;;;;5095873;27;20043;-74
2022/08/30 12:00:32;;;;;;;0.43;0.30;;;19.60;78.40;;;;;;5078472;28;20032;-74
2022/08/30 12:03:13;;;;;;;0.20;0.20;;;19.60;77.50;;;;;;5108118;27;20043;-74
2022/08/30 12:05:43;;;;;;;1.30;0.28;;;19.60;79.70;;;;;;5096064;28;20038;-75
2022/08/30 12:08:34;;;;;;;0.55;0.30;;;19.50;80.40;;;;;;5075430;28;20067;-74
2022/08/30 12:11:09;;;;;;;0.63;0.40;;;19.60;80.00;;;;;;5072916;28;20043;-74
2022/08/30 12:13:37;;;;;;;10.80;0.65;;;19.60;81.20;;;;;;5071372;28;20040;-74
2022/08/30 12:16:18;;;;;;;0.75;0.30;;;19.70;81.70;;;;;;5109216;27;20036;-70
2022/08/30 12:18:51;;;;;;;1.02;0.40;;;19.70;77.20;;;;;;5112167;27;20044;-74
2022/08/30 12:21:20;;;;;;;0.98;0.32;;;19.80;79.90;;;;;;5076518;28;20482;-74
2022/08/30 12:23:49;;;;;;;1.08;0.38;;;19.80;80.40;;;;;;5078334;28;20136;-74
2022/08/30 12:26:17;;;;;;;1.15;0.43;;;19.80;80.60;;;;;;5074852;28;20047;-74
2022/08/30 12:28:45;;;;;;;0.45;0.20;;;19.90;80.40;;;;;;5094940;28;20039;-74
2022/08/30 12:31:14;;;;;;;0.50;0.30;;;19.80;80.70;;;;;;5109461;27;20096;-74
2022/08/30 12:33:44;;;;;;;0.47;0.30;;;19.80;80.80;;;;;;5071035;28;20043;-73
2022/08/30 12:36:28;;;;;;;1.27;0.55;;;19.70;80.30;;;;;;5070792;28;20044;-74
2022/08/30 12:39:04;;;;;;;1.20;0.40;;;19.80;79.90;;;;;;5078423;28;20159;-74
2022/08/30 12:41:30;;;;;;;0.55;0.28;;;19.90;80.30;;;;;;5112720;27;20048;-74
2022/08/30 12:43:58;;;;;;;1.05;0.40;;;19.90;81.50;;;;;;5112216;27;20043;-74
2022/08/30 12:46:24;;;;;;;0.28;0.20;;;20.00;80.60;;;;;;5078351;28;20031;-74
2022/08/30 12:48:50;;;;;;;0.50;0.20;;;20.00;79.80;;;;;;5080696;28;20044;-74
2022/08/30 12:51:38;;;;;;;1.92;0.10;;;19.90;79.90;;;;;;5080154;28;20047;-74
2022/08/30 12:54:19;;;;;;;1.17;0.30;;;19.80;78.70;;;;;;5077301;28;20043;-74
2022/08/30 12:56:55;;;;;;;0.32;0.17;;;19.70;79.30;;;;;;5109329;27;20488;-74
2022/08/30 12:59:44;;;;;;;0.90;0.30;;;19.70;80.90;;;;;;5073636;28;20044;-74
2022/08/30 13:02:21;;;;;;;0.40;0.20;;;19.70;80.10;;;;;;5077262;28;20036;-74
2022/08/30 13:04:48;;;;;;;0.22;0.15;;;19.70;80.70;;;;;;5073397;28;20489;-74
2022/08/30 13:07:31;;;;;;;0.85;0.20;;;19.70;80.90;;;;;;5078120;28;20043;-74
2022/08/30 13:10:05;;;;;;;0.50;0.20;;;19.80;79.90;;;;;;5106310;27;20032;-74
2022/08/30 13:12:31;;;;;;;0.75;0.20;;;19.90;80.80;;;;;;5077944;28;20036;-74
2022/08/30 13:15:19;;;;;;;0.43;0.20;;;19.80;80.80;;;;;;5057541;28;20141;-74